NWS Home NWS Lubbock West Texas Mesonet                      Daily Summary For 03/02/2021

Latest   N   C   S   Daily Sum   3hrΔ   24hrΔ   Soil Data 
Site Map   24hr Precip   72hr Precip   Google Plot


Station Time of Last Max Temp Min Temp Max/Min Dew Pt. Max/Min RH 10m Avg Wind 2m Avg Wind Peak Gust @ 33ft (mph) Potential Evapotranspiration
mm/day or in/day
Rain Sum Solar Rad
MJ/m^2
% Clear Day Red Flag
Abernathy 5ENE 11:59 PM 79 36 57 /28 68 / 47 11.3  (W) 7.9 27.4 mph 225° @ 0244 PM 2.8 or 0.11 0.00 22.4 165.3 0
Adrian 6WSW 11:59 PM 79 36 57 /28 68 / 47 16.1  (S) 11.5 30 mph 246° @ 0356 PM 3.6 or 0.14 0.00 22.6 173.9 43
Aiken 3WSW 11:59 PM 79 36 57 /28 68 / 47 11.3  (SW) 7.3 25.1 mph 218° @ 0353 PM 2.8 or 0.11 0.00 23.2 172.5 0
Amarillo 15NNW 11:59 PM 79 36 57 /28 68 / 47 11.9  (S) 7.7 29.1 mph 211° @ 0519 PM 3.3 or 0.13 0.00 21.3 165.7 22
Amarillo 7SSE 11:59 PM 79 36 57 /28 68 / 47 12.7  (SW) 8.5 28.4 mph 228° @ 0127 PM 3 or 0.12 0.00 20.9 160.3 1
Amarillo 9NNE 11:59 PM 79 36 57 /28 68 / 47 12  (S) 8.3 29.9 mph 208° @ 1124 PM 3 or 0.12 0.00 21.2 164.5 6
Amherst 1NE 11:55 PM 79 36 57 /28 68 / 47 11  (SW) 7.6 25.3 mph 208° @ 0305 PM 2.8 or 0.11 0.00 4.4 163.3 0
Andrews 2E 11:59 PM 79 36 57 /28 68 / 47 6.9  (W) 3.5 18.6 mph 192° @ 0350 PM 2 or 0.08 0.00 23 161.2 0
Anton 6SSW 11:55 PM 79 36 57 /28 68 / 47 10  (S) 6.7 30.1 mph 198° @ 0345 PM 2.5 or 0.1 0.00 21.9 160.5 0
Aspermont 3NE 11:55 PM 79 36 57 /28 68 / 47 6.6  (W) 3.2 17.8 mph 155° @ 0320 PM 2 or 0.08 0.00 4.4 158.4 0
Big Bend NP - Castolon 11:59 PM 79 36 57 /28 68 / 47 5  (NW) 3.8 20 mph 324° @ 1221 AM 2.3 or 0.09 0.00 23.6 151.1 0
Big Bend NP - Persimmon Gap 11:59 PM 79 36 57 /28 68 / 47 5.5  (N) 4.4 19.7 mph 8° @ 0919 PM 2.3 or 0.09 0.00 22.9 147.5 0
Big Lake 1WNW 11:59 PM 79 36 57 /28 68 / 47 4.2  (NW) 2.7 12.9 mph 253° @ 0225 PM 1.8 or 0.07 0.00 23.7 160.6 0
Bootleg 11WNW 11:59 PM 79 36 57 /28 68 / 47 16.5  (SW) 11.7 32.4 mph 218° @ 0329 PM 3.6 or 0.14 0.00 19.5 147.8 89
Borger 7E 11:59 PM 79 36 57 /28 68 / 47 15  (SW) 10.7 30.7 mph 215° @ 0136 PM 3.8 or 0.15 0.00 23.3 183.7 17
Boys Ranch 1WSW 11:59 PM 79 36 57 /28 68 / 47 6  (NW) 4.7 27.4 mph 205° @ 0511 PM 2 or 0.08 0.00 22.1 173 0
Brownfield 2S 11:59 PM 79 36 57 /28 68 / 47 10.4  (W) 6.7 25.2 mph 209° @ 0203 PM 2.5 or 0.1 0.00 22.1 159 0
Canadian 6E 11:59 PM 79 36 57 /28 68 / 47 10.5  (W) 6.9 28.7 mph 180° @ 0114 PM 2.8 or 0.11 0.00 21.8 174.2 6
Caprock Canyons State Park 11:59 PM 79 36 57 /28 68 / 47 13.3  (W) 9.5 32.1 mph 226° @ 1256 PM 3.3 or 0.13 0.00 22.5 170 0
Childress 2NNE 11:55 PM 79 36 57 /28 68 / 47 10.5  (SW) 6.8 22.3 mph 187° @ 0500 PM 2.8 or 0.11 0.00 21.3 161.7 0
Clarendon 2WSW 11:55 PM 79 36 57 /28 68 / 47 12.3  (SW) 7.6 26.6 mph 208° @ 1130 AM 3 or 0.12 0.00 21.8 167.5 0
Claude 12SW 11:59 PM 79 36 57 /28 68 / 47 9.6  (S) 6.9 25.1 mph 221° @ 0341 PM 2.5 or 0.1 0.00 22.9 175.1 0
Clyde 2WNW 11:59 PM 79 36 57 /28 68 / 47 5.5  (N) 3.3 13.7 mph 226° @ 0318 PM 1.8 or 0.07 0.00 22.1 156.6 0
Colorado City 5NW 11:59 PM 79 36 57 /28 68 / 47 5.7  (W) 3.5 14.5 mph 222° @ 0100 PM 2 or 0.08 0.00 22.4 158.3 0
Comanche Springs 11:59 PM 79 36 57 /28 68 / 47 5.2  (NW) 2.9 20.8 mph 192° @ 0256 PM 1.8 or 0.07 0.00 23 172.5 0
Coyanosa 2N 11:59 PM 79 36 57 /28 68 / 47 5.5  (SW) 3.1 14.7 mph 105° @ 1028 PM 2 or 0.08 0.00 22.7 154.6 0
Crane 1NNW 11:59 PM 79 36 57 /28 68 / 47 4.3  (E) 2.2 13.9 mph 202° @ 0140 PM 1.8 or 0.07 0.00 23.7 161.7 0
Crowell 1E 11:59 PM 79 36 57 /28 68 / 47 6.7  (W) 4.6 20.1 mph 185° @ 0430 PM 2 or 0.08 0.00 21.9 164.6 0
Dell City 11:59 PM 79 36 57 /28 68 / 47 4.4  (S) 2.8 10.7 mph 289° @ 1028 PM 1.5 or 0.06 0.00 22.2 152.9 0
Denver City 7WNW 11:55 PM 79 36 57 /28 68 / 47 10.4  (SW) 6.6 22.1 mph 205° @ 0445 PM 2.5 or 0.1 0.00 23.6 168.4 0
Dimmitt 2NE 11:55 PM 79 36 57 /28 68 / 47 14.9  (SW) 11.7 26.8 mph 211° @ 0300 PM 3.3 or 0.13 0.00 21.5 161.8 0
Doole 3WNW 11:59 PM 79 36 57 /28 68 / 47 5.7  (N) 4.5 18.2 mph 6° @ 0203 PM 2 or 0.08 0.00 23.2 159.4 0
Dora NM 2SW 11:55 PM 79 36 57 /28 68 / 47 14.7  (SW) 10.7 25.9 mph 231° @ 1215 PM 3 or 0.12 0.00 20.7 151.5 0
Dozier 3W 11:59 PM 79 36 57 /28 68 / 47 8.2  (W) 4.6 24.3 mph 198° @ 0133 PM 2.3 or 0.09 0.00 21.6 167.6 0
Earth 9WSW 11:59 PM 79 36 57 /28 68 / 47 11.7  (S) 9.6 27.6 mph 190° @ 0430 PM 3 or 0.12 0.00 21.9 163 0
Endee NM 2SW 11:59 PM 79 36 57 /28 68 / 47 12.2  (SE) 8.8 30.6 mph 204° @ 0305 PM 3 or 0.12 0.00 21.1 161.7 46
Estelline 3SSE 11:59 PM 79 36 57 /28 68 / 47 8.2  (W) 5 21.3 mph 186° @ 0259 PM 2.5 or 0.1 0.00 21.8 166.4 0
Floydada 2NNE 11:55 PM 79 36 57 /28 68 / 47 11.5  (SW) 7.7 23.1 mph 202° @ 0320 PM 2.8 or 0.11 0.00 22 163.1 0
Fluvanna 3WNW 11:55 PM 79 36 57 /28 68 / 47 8  (NW) 5.3 18.6 mph 216° @ 0305 PM 2.3 or 0.09 0.00 20.8 149 0
Fort Chadbourne 11:59 PM 79 36 57 /28 68 / 47 5  (NW) 3.5 13.7 mph 164° @ 0444 PM 1.8 or 0.07 0.00 21.4 149.8 0
Fort Lancaster 11:59 PM 79 36 57 /28 68 / 47 2.8  (NW) 1.7 11.3 mph 122° @ 0326 PM 1.5 or 0.06 0.00 22.6 151.1 0
Fort Lewis CO 11:59 PM 79 36 57 /28 68 / 47 6.1  (NE) 3.7 16.3 mph 36° @ 1132 PM 1.3 or 0.05 0.00 22.2 179.4 0
Fort McKavett 11:59 PM 79 36 57 /28 68 / 47 3.1  (NW) 1.1 10.8 mph 134° @ 1125 PM 1.5 or 0.06 0.00 22.9 153.9 0
Friona 2NE 11:55 PM 79 36 57 /28 68 / 47 13.7  (SW) 9.7 34.7 mph 218° @ 0410 PM 3 or 0.12 0.00 22.5 169.7 0
Fritch 1WNW 11:59 PM 79 36 57 /28 68 / 47 13.9  (SW) 11.6 31 mph 219° @ 0220 PM 3.6 or 0.14 0.00 21.6 170.1 21
Gail 2ESE 11:59 PM 79 36 57 /28 68 / 47 6.4  (NW) 3 19.7 mph 186° @ 0311 PM 2 or 0.08 0.00 22.8 162.4 0
Goodlett 3W 11:55 PM 79 36 57 /28 68 / 47 9.9  (W) 6.8 22.7 mph 183° @ 0505 PM 2.5 or 0.1 0.00 22.6 171.9 0
Goodnight 11:59 PM 79 36 57 /28 68 / 47 13.1  (SW) 8.6 28.7 mph 228° @ 0419 PM 3.3 or 0.13 0.00 20.8 159.8 1
Graham 5SSW 11:59 PM 79 36 57 /28 68 / 47 10.1  (W) 7 23 mph 178° @ 0341 PM 2.5 or 0.1 0.00 23.1 166.4 0
Guadalupe Mtns Natl Park 11:59 PM 79 36 57 /28 68 / 47 8.6  (W) 5.8 25.2 mph 208° @ 0420 PM 2 or 0.08 0.00 23.7 160.3 0
Guthrie 10WSW 11:59 PM 79 36 57 /28 68 / 47 6.9  (SW) 4 27.4 mph 211° @ 0309 PM 2.3 or 0.09 0.00 22.9 168.5 0
Hackberry 2SSE 11:59 PM 79 36 57 /28 68 / 47 9.1  (SW) 6.5 20.8 mph 196° @ 0357 PM 2.5 or 0.1 0.00 23.5 175.5 0
Happy 1E 11:59 PM 79 36 57 /28 68 / 47 14.1  (SW) 10.8 33.9 mph 206° @ 0452 PM 3.3 or 0.13 0.00 22.9 173.4 6
Hart 3N 11:55 PM 79 36 57 /28 68 / 47 12  (SW) 8 27.9 mph 215° @ 0225 PM 2.8 or 0.11 0.00 22.3 166.9 0
Haskell 1NW 11:55 PM 79 36 57 /28 68 / 47 7.7  (W) 5.3 19.3 mph 191° @ 0405 PM 2.3 or 0.09 0.00 21.3 155 0
Hefner 1SW 11:59 PM 79 36 57 /28 68 / 47 8.7  (W) 5.5 21.6 mph 190° @ 0320 PM 2.3 or 0.09 0.00 22 162.2 0
Hereford 2NW 11:55 PM 79 36 57 /28 68 / 47 12.9  (SW) 9.9 30.2 mph 225° @ 0245 PM 3 or 0.12 0.00 21.4 162.8 0
Hobbs NM 5NW 11:59 PM 79 36 57 /28 68 / 47 7.6  (SW) 5.4 20.6 mph 206° @ 0350 PM 2 or 0.08 0.01 23.4 165.4 0
Jayton 1SSE 11:55 PM 79 36 57 /28 68 / 47 7.7  (NW) 5.3 22.2 mph 200° @ 0410 PM 2.3 or 0.09 0.00 21.6 157.3 0
Junction 1SSW 11:59 PM 79 36 57 /28 68 / 47 2.3  (N) 1.7 13.1 mph 350° @ 0255 PM 1.5 or 0.06 0.00 19.8 132.1 0
Kent 9E 11:59 PM 79 36 57 /28 68 / 47 5  (E) 3.5 14.3 mph 72° @ 0514 PM 2 or 0.08 0.00 23.4 156.3 0
Knox City 3NW 11:59 PM 79 36 57 /28 68 / 47 7.5  (SW) 4.1 17.5 mph 175° @ 0247 PM 2.3 or 0.09 0.00 23 169.3 0
Lake Alan Henry 1NW 11:59 PM 79 36 57 /28 68 / 47 6.8  (W) 4.2 16.2 mph 195° @ 0230 PM 2 or 0.08 0.00 21.8 157.5 0
Lake McClellan 2NW 11:59 PM 79 36 57 /28 68 / 47 14  (SW) 10.4 29.1 mph 192° @ 0238 PM 3.3 or 0.13 0.00 21.4 165.6 6
Lamesa 2SE 11:55 PM 79 36 57 /28 68 / 47 7.7  (W) 4.7 18.7 mph 200° @ 0500 PM 2.3 or 0.09 0.00 22.9 162.6 0
Lesley 2S 11:59 PM 79 36 57 /28 68 / 47 9  (NW) 5.8 23.5 mph 226° @ 0358 PM 2.8 or 0.11 0.00 22.8 174.5 0
Levelland 4S 11:59 PM 79 36 57 /28 68 / 47 10.4  (SW) 7.2 25.2 mph 202° @ 0215 PM 2.5 or 0.1 0.00 22.2 161.7 0
Lomax 1SSE 11:59 PM 79 36 57 /28 68 / 47 4.5  (W) 2.6 15 mph 189° @ 0512 PM 1.8 or 0.07 0.00 23.2 162.4 0
Lubbock 3WNW TTU 11:55 PM 79 36 57 /28 68 / 47 8.1  (SW) 3.9 23.2 mph 184° @ 0320 PM 2.3 or 0.09 0.00 22.4 163.8 0
McAdoo 3NNW 11:59 PM 79 36 57 /28 68 / 47 11.2  (W) 7.6 25.2 mph 224° @ 0420 PM 2.8 or 0.11 0.00 22.6 166.5 0
McCamey 1SSW 11:59 PM 79 36 57 /28 68 / 47 3.8  (NW) 2.7 14.4 mph 218° @ 0221 PM 1.5 or 0.06 0.00 20.7 140.1 0
McLean 1E 11:55 PM 79 36 57 /28 68 / 47 12.5  (SW) 9.4 26.5 mph 195° @ 0455 PM 3 or 0.12 0.00 22.8 177.3 0
Memphis 1NE 11:59 PM 79 36 57 /28 68 / 47 6.3  (W) 3.8 24.1 mph 209° @ 0345 PM 2 or 0.08 0.00 22.2 170 0
Menard 2NW 11:59 PM 79 36 57 /28 68 / 47 2.8  (NW) 2.2 14.2 mph 21° @ 0120 PM 1.5 or 0.06 0.00 20.6 139.1 0
Mertzon 3NNE 11:59 PM 79 36 57 /28 68 / 47 2.8  (S) 1.5 11.2 mph 284° @ 0153 AM 1.5 or 0.06 0.00 22.7 155 0
Morton 1ENE 11:55 PM 79 36 57 /28 68 / 47 11  (SW) 7.1 23.8 mph 216° @ 0255 PM 2.8 or 0.11 0.00 21.8 159.4 0
Muleshoe 2SSW 11:55 PM 79 36 57 /28 68 / 47 9.4  (S) 5.9 25.7 mph 223° @ 1210 PM 2.5 or 0.1 0.00 23.7 176.3 0
New Home 11:59 PM 79 36 57 /28 68 / 47 9.6  (W) 0.8 24.3 mph 223° @ 0212 PM 2.5 or 0.1 0.00 21.5 155.7 0
Northfield 1S 11:55 PM 79 36 57 /28 68 / 47 9.8  (SW) 6 22.9 mph 210° @ 1050 AM 2.8 or 0.11 0.00 21.1 158.9 0
O'Donnell 1N 11:55 PM 79 36 57 /28 68 / 47 8.1  (W) 4.2 21.8 mph 248° @ 0155 PM 2.3 or 0.09 0.00 3.9 141.1 0
Odell 4ENE 11:59 PM 79 36 57 /28 68 / 47 8.7  (SW) 5.9 21.6 mph 188° @ 0131 PM 2.3 or 0.09 0.00 21.2 161.8 0
Olton 6S 11:55 PM 79 36 57 /28 68 / 47 12.3  (SW) 8.1 25.4 mph 221° @ 0245 PM 2.8 or 0.11 0.00 21.8 161.4 0
Paducah 10SW 11:55 PM 79 36 57 /28 68 / 47 11.8  (W) 7.7 27.2 mph 210° @ 0105 PM 3 or 0.12 0.00 4.2 155.8 0
Palo Duro 4E (JA Ranch) 11:59 PM 79 36 57 /28 68 / 47 8.9  (W) 5.4 24.5 mph 210° @ 1229 PM 2.5 or 0.1 0.00 21.7 166.5 0
Palo Duro Canyon SP Floor 11:59 PM 79 36 57 /28 68 / 47 4.6  (SW) 2.3 22.5 mph 259° @ 0239 PM 1.5 or 0.06 0.00 20.5 157.6 0
Palo Duro Canyon State Park Rim 11:59 PM 79 36 57 /28 68 / 47 10.3  (SW) 6 28.9 mph 197° @ 0800 PM 2.8 or 0.11 0.00 22.5 172.1 0
Palo Duro Reservoir 1NW 11:59 PM 79 36 57 /28 68 / 47 12.9  (SW) 8.2 32.1 mph 207° @ 0206 PM 3.6 or 0.14 0.00 20.7 167.3 48
Pampa 2E 11:55 PM 79 36 57 /28 68 / 47 12.8  (SW) 9.1 27.4 mph 206° @ 0155 PM 3 or 0.12 0.00 20.4 159.4 0
Panhandle 1SSW 11:59 PM 79 36 57 /28 68 / 47 12.3  (SW) 8.3 29 mph 231° @ 0350 PM 3 or 0.12 0.00 21.8 169.2 9
Plains 3N 11:55 PM 79 36 57 /28 68 / 47 10  (SW) 6.7 23 mph 237° @ 0235 PM 2.5 or 0.1 0.00 23.2 166.4 0
Plainview 1S 11:59 PM 79 36 57 /28 68 / 47 9.9  (SW) 6.8 27.4 mph 218° @ 0344 PM 2.5 or 0.1 0.00 22.9 170.8 0
Post 1NE 11:59 PM 79 36 57 /28 68 / 47 9.4  (W) 6.4 21.9 mph 262° @ 0559 AM 2.5 or 0.1 0.00 22.3 161.3 0
Ralls 1SE 11:59 PM 79 36 57 /28 68 / 47 9.8  (W) 6.7 25.2 mph 209° @ 0350 PM 2.5 or 0.1 0.00 22.2 162.4 0
Reese Center 11:59 PM 79 36 57 /28 68 / 47 10.3  (W) 6.3 26.3 mph 201° @ 1210 PM 2.5 or 0.1 0.00 22.4 163.7 0
Roaring Springs 3N 11:59 PM 79 36 57 /28 68 / 47 11.9  (W) 8.5 36.2 mph 201° @ 0403 PM 3 or 0.12 0.00 22.7 168.4 0
Romero 11SSW 11:59 PM 79 36 57 /28 68 / 47 10.4  (W) 6.9 30.2 mph 203° @ 0354 PM 2.8 or 0.11 0.00 19.9 155 6
Rotan 5W 11:59 PM 79 36 57 /28 68 / 47 8.8  (W) 5.5 18.1 mph 211° @ 0109 PM 2.5 or 0.1 0.00 27.2 195.6 0
San Angelo 7NW 11:55 PM 79 36 57 /28 68 / 47 4.8  (NW) 3.2 12.2 mph 239° @ 0310 PM 1.8 or 0.07 0.00 22.2 152.8 0
Seagraves 1SW 11:59 PM 79 36 57 /28 68 / 47 7.8  (SW) 3.3 19.1 mph 213° @ 1105 AM 2.3 or 0.09 0.00 4.5 32.3 0
Segovia 7SSW 11:59 PM 79 36 57 /28 68 / 47 5.1  (N) 3.2 14 mph 0° @ 1135 AM 2 or 0.08 0.00 22.6 149.4 0
Seminole 2NNE 11:55 PM 79 36 57 /28 68 / 47 8.1  (SW) 4.7 22.3 mph 203° @ 0135 PM 2.3 or 0.09 0.01 4.6 161.5 0
Seymour 3NW 11:55 PM 79 36 57 /28 68 / 47 4.7  (W) 2.8 17.2 mph 212° @ 0340 PM 1.5 or 0.06 0.00 19 140.8 0
Sierra Blanca 1SSE 11:59 PM 79 36 57 /28 68 / 47 3.9  (NE) 2.9 15.3 mph 187° @ 1240 PM 1.5 or 0.06 0.00 21.4 142.9 0
Silverton 7ESE 11:55 PM 79 36 57 /28 68 / 47 12.8  (SW) 8.6 27.9 mph 226° @ 0430 PM 3 or 0.12 0.00 19.7 148.2 0
Slaton 2NE 11:59 PM 79 36 57 /28 68 / 47 10.7  (W) 7.6 23 mph 198° @ 0420 PM 2.5 or 0.1 0.00 23.1 168.3 0
Smyer 11:59 PM 79 36 57 /28 68 / 47 9.8  (SW) 7.4 31.1 mph 231° @ 0209 PM 2.5 or 0.1 0.00 23.3 169.7 0
Snyder 3E 11:55 PM 79 36 57 /28 68 / 47 5.8  (NW) 2.6 16.4 mph 205° @ 0500 PM 2 or 0.08 0.00 20 142.5 0
Snyder 3SSW 11:59 PM 79 36 57 /28 68 / 47 6.2  (W) 3.8 15.3 mph 204° @ 0447 PM 2 or 0.08 0.00 22.3 159 0
South Plains 3ENE 11:59 PM 79 36 57 /28 68 / 47 10.7  (W) 7 24.3 mph 219° @ 0431 PM 2.8 or 0.11 0.00 21.8 163.1 0
Spur 1W 11:55 PM 79 36 57 /28 68 / 47 6.8  (NW) 3.7 20.8 mph 209° @ 0300 PM 2 or 0.08 0.00 22.3 163.6 0
St. Lawrence 5SW 11:59 PM 79 36 57 /28 68 / 47 5.6  (NW) 3.2 14.2 mph 227° @ 0219 PM 1.8 or 0.07 0.00 24.4 167.5 0
Stamford 5ESE 11:59 PM 79 36 57 /28 68 / 47 6.2  (W) 3.8 17.4 mph 249° @ 0208 PM 2 or 0.08 0.00 22.5 162.4 0
Sterling City 4WSW 11:59 PM 79 36 57 /28 68 / 47 3  (SW) 1.6 14 mph 254° @ 0300 PM 1.3 or 0.05 0.00 18.5 128.4 0
Stinnett 1NNW 11:59 PM 79 36 57 /28 68 / 47 14.3  (SW) 8.5 30.4 mph 212° @ 0357 PM 3.8 or 0.15 0.00 21.6 171.1 25
Stratford 4WNW 11:59 PM 79 36 57 /28 68 / 47 15.3  (SW) 9.2 33.1 mph 214° @ 0257 PM 3.8 or 0.15 0.00 21.4 171.8 141
Sundown 8WSW 11:55 PM 79 36 57 /28 68 / 47 11.1  (SW) 6.4 25.5 mph 207° @ 0145 PM 2.8 or 0.11 0.00 19.5 141 0
Sweetwater 11SW 11:59 PM 79 36 57 /28 68 / 47 5.3  (N) 3.1 14.8 mph 237° @ 0239 PM 1.8 or 0.07 0.00 24.2 170.7 0
Tahoka 3NNE 11:59 PM 79 36 57 /28 68 / 47 8.6  (W) 4.8 20.7 mph 213° @ 1201 PM 2.3 or 0.09 0.00 22.3 160.7 0
Tarzan 2WNW 11:59 PM 79 36 57 /28 68 / 47 7  (W) 4.1 16.5 mph 195° @ 0403 PM 2 or 0.08 0.00 22.9 160.6 0
Tatum NM 2SW 11:55 PM 79 36 57 /28 68 / 47 11.3  (SW) 6.3 23.5 mph 196° @ 0440 PM 2.5 or 0.1 0.00 23.3 166.8 0
Throckmorton 1SW 11:59 PM 79 36 57 /28 68 / 47 5  (NW) 2.4 15.1 mph 254° @ 0100 PM 1.8 or 0.07 0.00 22.8 166.5 0
Truscott 2SE 11:59 PM 79 36 57 /28 68 / 47 7.2  (W) 4.4 19.5 mph 199° @ 0343 PM 2 or 0.08 0.00 21.6 160.7 0
Tulia 2ENE 11:55 PM 79 36 57 /28 68 / 47 14.2  (SW) 10.8 28.1 mph 212° @ 0335 PM 3.3 or 0.13 0.00 19.1 144.2 0
Turkey 2WSW 11:55 PM 79 36 57 /28 68 / 47 12.7  (SW) 9.2 23.2 mph 190° @ 0440 PM 3.3 or 0.13 0.00 19.1 144.1 0
Umbarger 3NNE 11:59 PM 79 36 57 /28 68 / 47 14  (SW) 9.7 29.7 mph 234° @ 0211 PM 3.3 or 0.13 0.00 21.2 162.1 10
Van Horn 3ENE 11:59 PM 79 36 57 /28 68 / 47 5.7  (NE) 3.2 15.5 mph 209° @ 0353 PM 2 or 0.08 0.00 24.4 162.8 0
Vega 4E 11:59 PM 79 36 57 /28 68 / 47 14.7  (SW) 10.7 36.2 mph 224° @ 0151 PM 3.6 or 0.14 0.00 23.1 177.9 40
Vigo Park 11:59 PM 79 36 57 /28 68 / 47 13.2  (SW) 8.8 29.6 mph 226° @ 1159 AM 3 or 0.12 0.00 20.1 152.1 4
Wall 2E 11:59 PM 79 36 57 /28 68 / 47 7.1  (W) 4.9 13.7 mph 240° @ 0654 AM 2.3 or 0.09 0.00 22.8 156.6 0
Weinert 2NNE 11:59 PM 79 36 57 /28 68 / 47 6.5  (W) 4.2 18.8 mph 229° @ 0100 PM 2 or 0.08 0.00 20.4 149.8 0
Welch 11:59 PM 79 36 57 /28 68 / 47 7.4  (W) 4.7 19.8 mph 223° @ 0314 PM 2 or 0.08 0.00 23 164.6 0
Wellington 6SE 11:59 PM 79 36 57 /28 68 / 47 9.6  (W) 6.1 28.5 mph 229° @ 0127 PM 2.5 or 0.1 0.00 23.4 180.2 0
White River Lake 6NW 11:59 PM 79 36 57 /28 68 / 47 10.7  (W) 7.6 23 mph 226° @ 1220 PM 2.8 or 0.11 0.00 23.3 170.7 0
Wolfforth 6SSW 11:59 PM 79 36 57 /28 68 / 47 10.4  (W) 6.9 27.4 mph 221° @ 0225 PM 2.5 or 0.1 0.00 22.8 165.1 0

WestTexas Mesonet Home    Site Map/Menu  National Weather Service Lubbock   Soil Data   Latest Observation Page   Previous  Date   Next Last